Alden, MI

2:09 PM EDT on May 28, 2015 (GMT -0400)
Bellaire | | Change Station
CLOSE
Current Station
Personal Weather Station
Location: Bellaire, MI
Elevation: 748 ft
Nearby Weather Stations

Elev 748 ft 44.91 °N, 85.24 °W | Updated 9 minutes ago

Clear
Clear
77.0 °F
Feels Like 79 °F
N
2.0
Wind Variable Wind from NNE
Gusts 4.0 mph

Today
High -- | Low -- °F
--% Chance of Precip.
Yesterday
High -- | Low -- °F
Precip. -- in
6:00 AM 9:16 PM
Waxing Gibbous, 77% visible
Pressure 30.18 in
Visibility 10.0 miles
Clouds Clear
Heat Index 79 °F
Dew Point 57 °F
Humidity 49%
Rainfall 0.00 in
Snow Depth Not available.
UV 11 out of 12
Pollen 9.10 out of 12
Air Quality Not available.
Flu Activity Sporadic
METAR KACB 281754Z AUTO 00000KT 10SM CLR 25/10 A3018 RMK AO2 T02530098 10254 20130

More Conditions Fewer Conditions

Pressure 30.18 in
Visibility 10.0 miles
Clouds Clear
Heat Index 79 °F
Dew Point 57 °F
Humidity 49%
Rainfall 0.00 in
Snow Depth Not available.
UV 11 out of 12
Pollen 9.10 out of 12
Air Quality Not available.
Flu Activity Sporadic
METAR KACB 281754Z AUTO 00000KT 10SM CLR 25/10 A3018 RMK AO2 T02530098 10254 20130

More Conditions Fewer Conditions

Nowcast | as of 2:00 PM EDT on May 28, 2015

At 3 PM...partly cloudy. Isolated thunderstorms. Temperature 78. Southwest winds 5 mph. At 5 PM...partly cloudy. Isolated thunderstorms. Temperature 77. West winds 5 mph. At 7 PM...mostly cloudy. Scattered thunderstorms. Temperature 75. Light winds. At 9 PM...mostly cloudy. Scattered thunderstorms. Temperature 70. Light winds.

×

10-Day Weather Forecast

Almanac

Astronomy

May. 28, 2015 Rise Set
Actual Time
Civil Twilight
Nautical Twilight
Astronomical Twilight
Moon
Length of Visible Light
Length of Day
Tomorrow will be .
, % of the Moon is Illuminated

Today's Extremes

State Highs State Lows

Community

WunderPhotos

Upload Photos

1,825,007 photos uploaded!

WunderBlogs® & News

Nearby

Air Quality

  Air Quality AQ Index Pollutant
Not available.

Snow Depth

Station Depth Elevation

Earthquake Activity

City Distance Mag. Time & Date
Minimum magnitude displayed is 2.5.

Coastal Water Temperatures

Place Temperature

Stations

Nearby Weather Stations

Station Location Temp. Windchill Dew Point Humidity Wind Precip. Elev Updated Type